Time;durP1;ratioP1;P1;durP2;ratioP2;P2;SDS_P1;SDS_P2;PMS_P1;PMS_P2;Temp;Humidity;BMP_temperature;BMP_pressure;BME280_temperature;BME280_humidity;BME280_pressure;Samples;Min_cycle;Max_cycle;Signal;HPM_P1;HPM_P2
2020/12/24 00:02:23;;;;;;;160.27;74.72;;;10.90;99.90;;;;;;5050859;28;20029;-74
2020/12/24 00:04:49;;;;;;;159.90;77.13;;;11.00;99.90;;;;;;5050549;28;20131;-75
2020/12/24 00:07:14;;;;;;;156.25;77.25;;;11.00;99.90;;;;;;5051653;28;20059;-75
2020/12/24 00:09:40;;;;;;;155.77;74.93;;;11.00;99.90;;;;;;5051726;28;20029;-74
2020/12/24 00:12:06;;;;;;;152.98;74.93;;;11.00;99.90;;;;;;5051462;28;20366;-74
2020/12/24 00:14:32;;;;;;;151.95;74.45;;;11.00;99.90;;;;;;5051172;28;20079;-75
2020/12/24 00:16:58;;;;;;;141.50;71.63;;;11.00;99.90;;;;;;5051260;28;20025;-74
2020/12/24 00:19:23;;;;;;;149.43;73.20;;;11.00;99.90;;;;;;5050881;28;20469;-74
2020/12/24 00:21:49;;;;;;;157.38;77.32;;;11.00;99.90;;;;;;5051640;28;20075;-75
2020/12/24 00:24:15;;;;;;;153.80;76.38;;;11.00;99.90;;;;;;5051454;28;20096;-74
2020/12/24 00:26:42;;;;;;;160.43;73.82;;;11.00;99.90;;;;;;5051418;28;20020;-74
2020/12/24 00:29:09;;;;;;;148.50;72.13;;;11.00;99.90;;;;;;5051224;28;20539;-74
2020/12/24 00:31:36;;;;;;;156.18;76.13;;;11.00;99.90;;;;;;5051163;28;20390;-73
2020/12/24 00:34:02;;;;;;;160.25;75.50;;;10.90;99.90;;;;;;5050940;28;20047;-74
2020/12/24 00:36:29;;;;;;;158.63;75.35;;;10.90;99.90;;;;;;5050965;28;20040;-74
2020/12/24 00:38:55;;;;;;;165.82;78.00;;;10.80;99.90;;;;;;5051208;28;20428;-73
2020/12/24 00:41:21;;;;;;;160.63;78.22;;;10.80;99.90;;;;;;5051541;28;20025;-74
2020/12/24 00:43:46;;;;;;;169.20;81.03;;;10.70;99.90;;;;;;5050676;28;20021;-73
2020/12/24 00:46:12;;;;;;;167.43;80.40;;;10.70;99.90;;;;;;5051090;28;20542;-74
2020/12/24 00:48:38;;;;;;;165.32;78.40;;;10.70;99.90;;;;;;5050693;28;20115;-74
2020/12/24 00:51:04;;;;;;;172.10;79.22;;;10.70;99.90;;;;;;5051202;28;20017;-74
2020/12/24 00:53:30;;;;;;;178.27;80.10;;;10.60;99.90;;;;;;5051242;28;20469;-74
2020/12/24 00:55:55;;;;;;;177.90;79.20;;;10.60;99.90;;;;;;5051054;28;20048;-74
2020/12/24 00:58:21;;;;;;;169.77;79.55;;;10.60;99.90;;;;;;5051068;28;20029;-74
2020/12/24 01:00:47;;;;;;;169.07;77.72;;;10.60;99.90;;;;;;5050977;28;20023;-74
2020/12/24 01:03:12;;;;;;;157.52;75.32;;;10.70;99.90;;;;;;5051334;28;20029;-74
2020/12/24 01:05:38;;;;;;;155.93;72.50;;;10.70;99.90;;;;;;5051246;28;20017;-74
2020/12/24 01:08:04;;;;;;;142.68;70.15;;;10.70;99.90;;;;;;5050160;28;20045;-73
2020/12/24 01:10:29;;;;;;;142.40;67.22;;;10.70;99.90;;;;;;5050769;28;20014;-74
2020/12/24 01:12:55;;;;;;;151.75;70.22;;;10.70;99.90;;;;;;5049291;28;20033;-74
2020/12/24 01:15:21;;;;;;;149.48;73.00;;;10.70;99.90;;;;;;5051279;28;20107;-74
2020/12/24 01:17:47;;;;;;;154.07;73.78;;;10.70;99.90;;;;;;5042627;28;20022;-74
2020/12/24 01:20:12;;;;;;;146.60;72.25;;;10.70;99.90;;;;;;5054800;28;20027;-74
2020/12/24 01:22:39;;;;;;;152.10;71.53;;;10.70;99.90;;;;;;5054485;28;20100;-75
2020/12/24 01:25:04;;;;;;;144.63;71.72;;;10.70;99.90;;;;;;5052283;28;20025;-75
2020/12/24 01:27:30;;;;;;;144.13;70.25;;;10.70;99.90;;;;;;5054316;28;20082;-75
2020/12/24 01:29:56;;;;;;;155.27;74.35;;;10.70;99.90;;;;;;5058528;28;20032;-74
2020/12/24 01:32:22;;;;;;;159.70;74.70;;;10.70;99.90;;;;;;5066031;28;20060;-74
2020/12/24 01:34:47;;;;;;;157.50;73.00;;;10.70;99.90;;;;;;5065611;28;20465;-74
2020/12/24 01:37:13;;;;;;;147.40;71.43;;;10.70;99.90;;;;;;5066631;28;20021;-75
2020/12/24 01:39:39;;;;;;;152.02;73.32;;;10.70;99.90;;;;;;5054235;28;20552;-74
2020/12/24 01:42:04;;;;;;;143.77;69.07;;;10.70;99.90;;;;;;5054865;28;20044;-74
2020/12/24 01:44:30;;;;;;;146.00;69.65;;;10.70;99.90;;;;;;5062913;28;20021;-74
2020/12/24 01:46:56;;;;;;;134.57;66.05;;;10.80;99.90;;;;;;5055079;28;20378;-74
2020/12/24 01:49:22;;;;;;;132.73;63.92;;;10.80;99.90;;;;;;5054524;28;20029;-74
2020/12/24 01:51:53;;;;;;;129.07;63.95;;;10.70;99.90;;;;;;5054153;28;20049;-74
2020/12/24 01:54:21;;;;;;;133.07;64.72;;;10.80;99.90;;;;;;5062621;28;20369;-74
2020/12/24 01:56:48;;;;;;;119.78;58.22;;;10.70;99.90;;;;;;5064008;28;20028;-74
2020/12/24 01:59:17;;;;;;;129.85;61.08;;;10.70;99.90;;;;;;5056930;28;20029;-74
2020/12/24 02:01:44;;;;;;;122.30;61.58;;;10.70;99.90;;;;;;5054253;28;20052;-74
2020/12/24 02:04:11;;;;;;;122.35;58.22;;;10.70;99.90;;;;;;5053979;28;20025;-74
2020/12/24 02:06:41;;;;;;;116.53;55.95;;;10.70;99.90;;;;;;5055577;28;20024;-72
2020/12/24 02:09:07;;;;;;;124.43;58.30;;;10.70;99.90;;;;;;5056120;28;20029;-73
2020/12/24 02:11:33;;;;;;;119.05;59.30;;;10.70;99.90;;;;;;5067331;28;20492;-73
2020/12/24 02:13:59;;;;;;;121.28;56.92;;;10.70;99.90;;;;;;5053746;28;20021;-73
2020/12/24 02:16:25;;;;;;;114.25;55.53;;;10.70;99.90;;;;;;5053622;28;20123;-73
2020/12/24 02:18:51;;;;;;;118.72;54.15;;;10.70;99.90;;;;;;5066205;28;20017;-73
2020/12/24 02:21:17;;;;;;;104.85;53.90;;;10.70;99.90;;;;;;5060679;28;20373;-73
2020/12/24 02:23:42;;;;;;;97.80;49.08;;;10.70;99.90;;;;;;5053991;28;20075;-73
2020/12/24 02:26:08;;;;;;;107.22;51.80;;;10.70;99.90;;;;;;5053729;28;20025;-73
2020/12/24 02:28:34;;;;;;;101.47;52.10;;;10.70;99.90;;;;;;5056991;28;20036;-74
2020/12/24 02:31:01;;;;;;;104.95;49.72;;;10.80;99.90;;;;;;5062314;28;20416;-74
2020/12/24 02:33:27;;;;;;;99.50;48.47;;;10.80;99.90;;;;;;5053416;28;20075;-73
2020/12/24 02:35:53;;;;;;;97.00;48.60;;;10.70;99.90;;;;;;5053430;28;20092;-73
2020/12/24 02:38:19;;;;;;;97.95;47.53;;;10.70;99.90;;;;;;5052432;28;20457;-73
2020/12/24 02:40:45;;;;;;;96.88;48.47;;;10.80;99.90;;;;;;5055119;28;20509;-72
2020/12/24 02:43:10;;;;;;;104.75;51.85;;;10.80;99.90;;;;;;5069477;28;20069;-72
2020/12/24 02:45:36;;;;;;;97.65;50.17;;;10.80;99.90;;;;;;5053235;28;20459;-73
2020/12/24 02:48:02;;;;;;;106.40;51.58;;;10.80;99.90;;;;;;5052778;28;20139;-73
2020/12/24 02:50:28;;;;;;;101.03;49.55;;;10.90;99.90;;;;;;5055090;28;20021;-72
2020/12/24 02:52:53;;;;;;;112.55;56.70;;;10.90;99.90;;;;;;5057214;28;20402;-74
2020/12/24 02:55:19;;;;;;;115.28;59.00;;;10.90;99.90;;;;;;5054945;28;20021;-74
2020/12/24 02:57:45;;;;;;;115.38;57.97;;;10.90;99.90;;;;;;5059384;28;20454;-73
2020/12/24 03:00:11;;;;;;;117.43;58.83;;;10.90;99.90;;;;;;5049865;28;20134;-73
2020/12/24 03:02:38;;;;;;;126.78;60.00;;;10.90;99.90;;;;;;5050694;28;20020;-73
2020/12/24 03:05:04;;;;;;;122.97;59.47;;;10.90;99.90;;;;;;5058677;28;20025;-74
2020/12/24 03:07:30;;;;;;;122.53;61.03;;;10.90;99.90;;;;;;5057170;28;20098;-73
2020/12/24 03:09:55;;;;;;;126.63;62.22;;;10.90;99.90;;;;;;5052021;28;20469;-73
2020/12/24 03:12:25;;;;;;;125.85;60.78;;;10.90;99.90;;;;;;5052331;28;20025;-74
2020/12/24 03:14:51;;;;;;;128.32;63.05;;;10.80;99.90;;;;;;5052130;28;20040;-74
2020/12/24 03:17:18;;;;;;;122.03;60.45;;;10.80;99.90;;;;;;5052418;28;20512;-73
2020/12/24 03:19:44;;;;;;;123.57;61.88;;;10.80;99.90;;;;;;5052811;28;20120;-73
2020/12/24 03:22:09;;;;;;;141.07;66.93;;;10.80;99.90;;;;;;5052625;28;20104;-73
2020/12/24 03:24:35;;;;;;;155.43;74.47;;;10.80;99.90;;;;;;5052278;28;20021;-74
2020/12/24 03:27:01;;;;;;;160.27;78.00;;;10.90;99.90;;;;;;5052513;28;20035;-74
2020/12/24 03:29:26;;;;;;;167.52;79.00;;;10.90;99.90;;;;;;5052657;28;20063;-73
2020/12/24 03:31:52;;;;;;;162.35;79.30;;;10.90;99.90;;;;;;5052405;28;20025;-74
2020/12/24 03:34:18;;;;;;;170.35;84.95;;;10.90;99.90;;;;;;5052949;28;20025;-74
2020/12/24 03:36:43;;;;;;;176.88;87.30;;;10.90;99.90;;;;;;5052088;28;20009;-74
2020/12/24 03:39:09;;;;;;;183.45;88.85;;;10.80;99.90;;;;;;5051634;28;20124;-74
2020/12/24 03:41:35;;;;;;;190.43;90.95;;;10.80;99.90;;;;;;5052035;28;20025;-74
2020/12/24 03:44:00;;;;;;;192.10;92.82;;;10.80;99.90;;;;;;5051989;28;20013;-74
2020/12/24 03:46:26;;;;;;;197.43;91.55;;;10.70;99.90;;;;;;5052113;28;20036;-74
2020/12/24 03:48:52;;;;;;;189.70;90.40;;;10.80;99.90;;;;;;5051966;28;20037;-74
2020/12/24 03:51:18;;;;;;;190.15;91.45;;;10.80;99.90;;;;;;5052095;28;20470;-74
2020/12/24 03:53:44;;;;;;;200.02;94.30;;;10.80;99.90;;;;;;5052162;28;20036;-74
2020/12/24 03:56:09;;;;;;;196.50;94.25;;;10.80;99.90;;;;;;5051990;28;20624;-74
2020/12/24 03:58:35;;;;;;;198.95;93.80;;;10.80;99.90;;;;;;5052038;28;20418;-74
2020/12/24 04:01:01;;;;;;;193.63;89.60;;;10.80;99.90;;;;;;5052084;28;20024;-74
2020/12/24 04:03:26;;;;;;;191.95;92.13;;;10.80;99.90;;;;;;5051908;28;20037;-73
2020/12/24 04:05:52;;;;;;;188.13;89.00;;;10.80;99.90;;;;;;5051803;28;20021;-74
2020/12/24 04:08:18;;;;;;;183.32;88.50;;;10.80;99.90;;;;;;5051772;28;20075;-73
2020/12/24 04:10:43;;;;;;;181.38;87.25;;;10.80;99.90;;;;;;5052225;28;20030;-73
2020/12/24 04:13:09;;;;;;;174.10;87.07;;;10.80;99.90;;;;;;5051783;28;20024;-74
2020/12/24 04:15:35;;;;;;;184.15;87.10;;;10.80;99.90;;;;;;5052005;28;20036;-74
2020/12/24 04:18:00;;;;;;;183.77;87.97;;;10.80;99.90;;;;;;5051569;28;20074;-74
2020/12/24 04:20:26;;;;;;;182.43;89.35;;;10.80;99.90;;;;;;5051711;28;20025;-74
2020/12/24 04:22:51;;;;;;;182.18;88.72;;;10.80;99.90;;;;;;5051293;28;20032;-74
2020/12/24 04:25:17;;;;;;;191.85;87.60;;;10.70;99.90;;;;;;5051343;28;20032;-73
2020/12/24 04:27:43;;;;;;;189.60;86.18;;;10.70;99.90;;;;;;5051017;28;20041;-73
2020/12/24 04:30:08;;;;;;;190.00;88.93;;;10.70;99.90;;;;;;5051112;28;20021;-74
2020/12/24 04:32:34;;;;;;;175.50;83.35;;;10.70;99.90;;;;;;5051433;28;20108;-75
2020/12/24 04:35:01;;;;;;;186.15;89.28;;;10.70;99.90;;;;;;5051089;28;20032;-73
2020/12/24 04:37:26;;;;;;;193.80;91.65;;;10.70;99.90;;;;;;5051309;28;20074;-73
2020/12/24 04:39:52;;;;;;;190.35;89.97;;;10.60;99.90;;;;;;5051247;28;20045;-73
2020/12/24 04:42:21;;;;;;;187.23;90.22;;;10.60;99.90;;;;;;5051491;28;20458;-74
2020/12/24 04:44:49;;;;;;;192.10;89.80;;;10.60;99.90;;;;;;5051491;28;20040;-73
2020/12/24 04:47:18;;;;;;;185.60;88.45;;;10.60;99.90;;;;;;5051384;28;20067;-74
2020/12/24 04:49:45;;;;;;;190.77;86.80;;;10.60;99.90;;;;;;5052134;28;20032;-75
2020/12/24 04:52:14;;;;;;;190.80;89.65;;;10.60;99.90;;;;;;5055065;28;20017;-73
2020/12/24 04:54:40;;;;;;;177.70;85.05;;;10.60;99.90;;;;;;5055012;28;20028;-73
2020/12/24 04:57:10;;;;;;;181.05;87.18;;;10.60;99.90;;;;;;5054895;28;20025;-75
2020/12/24 04:59:36;;;;;;;188.48;87.13;;;10.60;99.90;;;;;;5055266;28;20021;-74
2020/12/24 05:02:03;;;;;;;186.77;85.25;;;10.60;99.90;;;;;;5054996;28;20018;-74
2020/12/24 05:04:30;;;;;;;179.48;82.88;;;10.60;99.90;;;;;;5054602;28;20027;-74
2020/12/24 05:07:06;;;;;;;186.10;81.93;;;10.60;99.90;;;;;;5055145;28;20023;-73
2020/12/24 05:09:34;;;;;;;180.13;82.97;;;10.50;99.90;;;;;;5055047;28;20075;-73
2020/12/24 05:12:00;;;;;;;199.43;86.72;;;10.50;99.90;;;;;;5055366;28;20036;-73
2020/12/24 05:14:28;;;;;;;183.55;82.35;;;10.50;99.90;;;;;;5054684;28;20025;-73
2020/12/24 05:17:03;;;;;;;192.82;83.20;;;10.50;99.90;;;;;;5055042;28;20021;-74
2020/12/24 05:19:35;;;;;;;206.15;85.50;;;10.40;99.90;;;;;;5054880;28;20112;-73
2020/12/24 05:22:30;;;;;;;210.82;86.10;;;10.40;99.90;;;;;;5055132;28;20471;-73
2020/12/24 05:25:19;;;;;;;214.73;87.28;;;10.40;99.90;;;;;;5026580;28;20025;-74
2020/12/24 05:27:55;;;;;;;202.38;85.45;;;10.40;99.90;;;;;;5054558;28;20110;-73
2020/12/24 05:30:27;;;;;;;206.75;87.25;;;10.40;99.90;;;;;;5055113;28;20031;-73
2020/12/24 05:32:53;;;;;;;196.60;83.65;;;10.40;99.90;;;;;;5054557;28;20104;-73
2020/12/24 05:35:23;;;;;;;192.07;83.60;;;10.40;99.90;;;;;;5054445;28;20096;-74
2020/12/24 05:37:50;;;;;;;199.38;82.18;;;10.40;99.90;;;;;;5054169;28;20160;-73
2020/12/24 05:40:27;;;;;;;197.90;81.30;;;10.40;99.90;;;;;;5053249;28;20068;-73
2020/12/24 05:42:55;;;;;;;200.02;81.03;;;10.40;99.90;;;;;;5054658;28;20504;-73
2020/12/24 05:45:23;;;;;;;213.55;84.60;;;10.40;99.90;;;;;;5054482;28;20415;-73
2020/12/24 05:48:09;;;;;;;199.60;81.95;;;10.40;99.90;;;;;;5054172;28;20028;-74
2020/12/24 05:50:35;;;;;;;197.05;83.15;;;10.40;99.90;;;;;;5053872;28;20048;-74
2020/12/24 05:53:06;;;;;;;206.65;86.90;;;10.40;99.90;;;;;;5054402;28;20491;-73
2020/12/24 05:55:34;;;;;;;206.23;82.78;;;10.40;99.90;;;;;;5053278;28;20074;-73
2020/12/24 05:57:59;;;;;;;213.65;84.15;;;10.40;99.90;;;;;;5054177;28;20090;-73
2020/12/24 06:00:33;;;;;;;197.73;81.90;;;10.40;99.90;;;;;;5053939;28;20025;-73
2020/12/24 06:03:20;;;;;;;221.93;86.93;;;10.40;99.90;;;;;;5052987;28;20092;-74
2020/12/24 06:06:20;;;;;;;213.63;86.50;;;10.40;99.90;;;;;;5047682;28;20033;-73
2020/12/24 06:08:46;;;;;;;233.52;81.50;;;10.40;99.90;;;;;;5010379;28;20052;-73
2020/12/24 06:11:13;;;;;;;222.23;79.80;;;10.40;99.90;;;;;;5053780;28;20750;-73
2020/12/24 06:13:44;;;;;;;233.02;79.57;;;10.30;99.90;;;;;;5053732;28;20473;-72
2020/12/24 06:16:14;;;;;;;233.52;81.50;;;10.30;99.90;;;;;;5053958;28;20032;-73
2020/12/24 06:18:41;;;;;;;206.65;76.82;;;10.40;99.90;;;;;;5035939;28;20366;-74
2020/12/24 06:21:12;;;;;;;241.50;83.88;;;10.40;99.90;;;;;;5053865;28;20377;-74
2020/12/24 06:23:38;;;;;;;235.55;80.35;;;10.40;99.90;;;;;;5053507;28;20103;-74
2020/12/24 06:26:07;;;;;;;241.38;79.45;;;10.40;99.90;;;;;;5053177;28;20103;-75
2020/12/24 06:28:35;;;;;;;228.60;75.82;;;10.40;99.90;;;;;;5046068;28;20370;-73
2020/12/24 06:31:02;;;;;;;248.30;81.53;;;10.40;99.90;;;;;;5053963;28;20100;-73
2020/12/24 06:33:29;;;;;;;249.15;81.40;;;10.40;99.90;;;;;;5053487;28;20017;-74
2020/12/24 06:35:56;;;;;;;237.35;81.40;;;10.40;99.90;;;;;;5053480;28;20048;-73
2020/12/24 06:38:46;;;;;;;261.17;87.22;;;10.40;99.90;;;;;;5053381;28;20039;-74
2020/12/24 06:41:33;;;;;;;256.73;82.50;;;10.40;99.90;;;;;;5053650;28;20413;-73
2020/12/24 06:43:59;;;;;;;256.63;80.72;;;10.50;99.90;;;;;;5046673;28;20087;-73
2020/12/24 06:46:24;;;;;;;273.40;84.68;;;10.50;99.90;;;;;;5053227;28;20033;-73
2020/12/24 06:49:06;;;;;;;268.73;84.68;;;10.40;99.90;;;;;;5052812;28;20072;-73
2020/12/24 06:51:48;;;;;;;269.13;85.20;;;10.50;99.90;;;;;;5053184;28;20045;-73
2020/12/24 06:54:22;;;;;;;270.65;85.15;;;10.50;99.90;;;;;;5046935;28;20045;-74
2020/12/24 06:56:48;;;;;;;262.88;84.38;;;10.50;99.90;;;;;;5053408;28;20021;-73
2020/12/24 06:59:21;;;;;;;280.67;84.85;;;10.50;99.90;;;;;;5052522;28;20039;-73
2020/12/24 07:02:07;;;;;;;267.80;84.93;;;10.50;99.90;;;;;;5052996;28;20049;-73
2020/12/24 07:04:40;;;;;;;263.23;84.82;;;10.50;99.90;;;;;;5051818;28;20037;-73
2020/12/24 07:07:09;;;;;;;276.67;88.43;;;10.50;99.90;;;;;;5052618;28;20017;-73
2020/12/24 07:09:34;;;;;;;283.17;85.78;;;10.50;99.90;;;;;;5053068;28;20085;-74
2020/12/24 07:12:01;;;;;;;287.63;90.28;;;10.50;99.90;;;;;;5053241;28;20149;-73
2020/12/24 07:14:28;;;;;;;280.13;92.10;;;10.50;99.90;;;;;;5052644;28;20031;-73
2020/12/24 07:16:55;;;;;;;260.10;86.30;;;10.60;99.90;;;;;;5052851;28;20104;-73
2020/12/24 07:19:22;;;;;;;273.92;85.95;;;10.60;99.90;;;;;;5052625;28;20017;-74
2020/12/24 07:21:52;;;;;;;274.50;88.65;;;10.60;99.90;;;;;;5052818;28;20357;-75
2020/12/24 07:24:29;;;;;;;284.05;87.95;;;10.50;99.90;;;;;;5052828;28;20029;-73
2020/12/24 07:26:56;;;;;;;262.63;88.40;;;10.60;99.90;;;;;;5040006;28;20346;-73
2020/12/24 07:29:24;;;;;;;247.52;84.82;;;10.60;99.90;;;;;;5052591;28;20171;-73
2020/12/24 07:31:54;;;;;;;247.13;81.88;;;10.60;99.90;;;;;;5052370;28;20066;-73
2020/12/24 07:34:32;;;;;;;247.75;82.82;;;10.70;99.90;;;;;;5056624;28;20048;-74
2020/12/24 07:36:58;;;;;;;257.40;86.65;;;10.70;99.90;;;;;;5041470;28;20021;-73
2020/12/24 07:39:24;;;;;;;258.73;90.30;;;10.70;99.90;;;;;;5059301;28;20045;-74
2020/12/24 07:41:50;;;;;;;259.27;90.32;;;10.70;99.90;;;;;;5055609;28;20017;-74
2020/12/24 07:44:19;;;;;;;254.82;87.93;;;10.70;99.90;;;;;;5051942;28;20075;-73
2020/12/24 07:46:46;;;;;;;246.77;87.28;;;10.70;99.90;;;;;;5052711;28;20031;-74
2020/12/24 07:49:12;;;;;;;264.77;89.45;;;10.70;99.90;;;;;;5057296;28;20100;-73
2020/12/24 07:51:38;;;;;;;280.20;90.80;;;10.70;99.90;;;;;;5043585;28;20013;-74
2020/12/24 07:54:08;;;;;;;261.73;90.82;;;10.70;99.90;;;;;;5052168;28;20025;-74
2020/12/24 07:56:35;;;;;;;245.23;84.30;;;10.70;99.90;;;;;;5051621;28;20420;-73
2020/12/24 07:59:06;;;;;;;251.98;86.32;;;10.70;99.90;;;;;;5051664;28;20025;-76
2020/12/24 08:01:32;;;;;;;280.02;91.40;;;10.70;99.90;;;;;;5039109;28;20059;-75
2020/12/24 08:03:59;;;;;;;261.20;87.20;;;10.70;99.90;;;;;;5065968;28;20055;-74
2020/12/24 08:06:25;;;;;;;274.48;90.65;;;10.70;99.90;;;;;;5041202;28;20017;-73
2020/12/24 08:08:51;;;;;;;253.75;87.20;;;10.70;99.90;;;;;;5059430;28;20114;-73
2020/12/24 08:11:17;;;;;;;247.98;88.65;;;10.70;99.90;;;;;;5051834;28;20028;-73
2020/12/24 08:13:43;;;;;;;253.38;88.95;;;10.70;99.90;;;;;;5059551;28;20024;-74
2020/12/24 08:16:12;;;;;;;265.77;88.95;;;10.70;99.90;;;;;;5057368;28;20060;-73
2020/12/24 08:18:44;;;;;;;271.42;90.28;;;10.70;99.90;;;;;;5062757;28;20350;-73
2020/12/24 08:21:22;;;;;;;253.52;89.38;;;10.70;99.90;;;;;;5051560;28;20024;-74
2020/12/24 08:23:59;;;;;;;241.68;84.88;;;10.80;99.90;;;;;;5035972;28;20032;-74
2020/12/24 08:26:25;;;;;;;263.48;88.30;;;10.80;99.90;;;;;;5045707;28;20028;-74
2020/12/24 08:28:56;;;;;;;254.60;90.43;;;10.80;99.90;;;;;;5071432;28;20119;-73
2020/12/24 08:31:24;;;;;;;255.95;92.75;;;10.90;99.90;;;;;;5055593;28;20021;-75
2020/12/24 08:33:52;;;;;;;274.88;97.10;;;10.80;99.90;;;;;;5048495;28;20033;-76
2020/12/24 08:36:23;;;;;;;257.45;93.03;;;10.80;99.90;;;;;;5032689;28;20363;-75
2020/12/24 08:38:50;;;;;;;235.13;90.45;;;10.80;99.90;;;;;;5057216;28;20037;-75
2020/12/24 08:41:25;;;;;;;254.52;91.38;;;10.90;99.90;;;;;;5031373;28;20037;-74
2020/12/24 08:43:54;;;;;;;259.05;89.10;;;10.90;99.90;;;;;;5018117;28;20022;-76
2020/12/24 08:46:20;;;;;;;261.70;94.60;;;10.90;99.90;;;;;;5028718;28;20037;-73
2020/12/24 08:48:46;;;;;;;240.35;90.18;;;10.90;99.90;;;;;;5017862;28;20038;-74
2020/12/24 08:51:19;;;;;;;228.43;89.55;;;11.00;99.90;;;;;;5015554;28;20073;-74
2020/12/24 08:53:45;;;;;;;247.57;88.93;;;10.90;99.90;;;;;;5018510;28;20029;-75
2020/12/24 08:56:15;;;;;;;220.80;86.05;;;11.00;99.90;;;;;;5020002;28;20037;-74
2020/12/24 08:58:54;;;;;;;227.95;85.93;;;11.00;99.90;;;;;;5014741;28;20033;-75
2020/12/24 09:01:21;;;;;;;237.55;87.93;;;11.10;99.90;;;;;;5012491;28;20024;-75
2020/12/24 09:03:48;;;;;;;239.43;93.82;;;11.10;99.90;;;;;;5012025;28;20041;-74
2020/12/24 09:06:18;;;;;;;228.73;90.72;;;11.10;99.90;;;;;;5016620;28;20057;-74
2020/12/24 09:08:51;;;;;;;226.75;90.35;;;11.10;99.90;;;;;;5018719;28;20037;-74
2020/12/24 09:11:27;;;;;;;231.52;91.18;;;11.10;99.90;;;;;;5015222;28;20021;-75
2020/12/24 09:14:03;;;;;;;239.82;93.13;;;11.10;99.90;;;;;;5022810;28;20033;-74
2020/12/24 09:16:31;;;;;;;230.15;88.72;;;11.10;99.90;;;;;;5030256;28;20021;-73
2020/12/24 09:19:05;;;;;;;216.95;92.35;;;11.20;99.90;;;;;;5025373;28;20017;-73
2020/12/24 09:21:33;;;;;;;241.57;92.35;;;11.20;99.90;;;;;;5022583;28;20029;-75
2020/12/24 09:24:09;;;;;;;223.30;92.95;;;11.10;99.90;;;;;;5018469;28;20056;-74
2020/12/24 09:26:47;;;;;;;210.75;88.15;;;11.20;99.90;;;;;;5010651;28;20038;-74
2020/12/24 09:29:13;;;;;;;218.43;88.88;;;11.20;99.90;;;;;;5015360;28;20037;-74
2020/12/24 09:31:39;;;;;;;196.32;79.95;;;11.20;99.90;;;;;;5026367;28;20082;-74
2020/12/24 09:34:06;;;;;;;174.23;72.80;;;11.30;99.90;;;;;;5035619;28;20173;-74
2020/12/24 09:36:32;;;;;;;169.52;72.10;;;11.30;99.90;;;;;;5022665;28;20033;-74
2020/12/24 09:38:57;;;;;;;179.98;74.22;;;11.40;99.90;;;;;;5028702;28;20029;-73
2020/12/24 09:41:23;;;;;;;131.73;61.08;;;11.40;99.90;;;;;;5045094;28;20033;-74
2020/12/24 09:43:49;;;;;;;144.50;59.85;;;11.50;99.90;;;;;;5042106;28;20033;-73
2020/12/24 09:46:15;;;;;;;151.35;65.80;;;11.60;99.90;;;;;;5046831;28;20096;-73
2020/12/24 09:48:41;;;;;;;126.63;52.58;;;11.70;99.90;;;;;;5053991;28;20041;-75
2020/12/24 09:51:07;;;;;;;112.35;51.05;;;11.80;99.90;;;;;;5054263;28;20024;-73
2020/12/24 09:53:33;;;;;;;133.88;60.50;;;12.00;99.90;;;;;;5048592;28;20017;-74
2020/12/24 09:55:59;;;;;;;120.63;53.85;;;12.10;99.90;;;;;;5038233;28;20536;-75
2020/12/24 09:58:24;;;;;;;113.43;52.28;;;12.10;99.90;;;;;;5047344;28;20071;-76
2020/12/24 10:00:50;;;;;;;122.30;54.60;;;12.10;99.90;;;;;;5051099;28;20029;-74
2020/12/24 10:03:16;;;;;;;103.93;48.25;;;12.10;99.90;;;;;;5034144;28;20034;-73
2020/12/24 10:05:41;;;;;;;122.07;51.28;;;12.20;99.90;;;;;;5034094;28;20021;-74
2020/12/24 10:08:07;;;;;;;96.32;42.45;;;12.20;99.90;;;;;;5033093;28;20491;-74
2020/12/24 10:10:33;;;;;;;91.88;44.90;;;12.30;99.90;;;;;;5035708;28;20026;-74
2020/12/24 10:12:58;;;;;;;81.45;39.53;;;12.30;99.90;;;;;;5035947;28;20107;-73
2020/12/24 10:15:24;;;;;;;98.53;43.78;;;12.40;99.90;;;;;;5042813;28;20382;-73
2020/12/24 10:17:50;;;;;;;85.47;38.38;;;12.40;99.90;;;;;;5055373;28;20029;-73
2020/12/24 10:20:16;;;;;;;83.25;37.22;;;12.50;99.90;;;;;;5057220;28;20108;-76
2020/12/24 10:22:41;;;;;;;68.60;32.88;;;12.50;99.90;;;;;;5047090;28;20030;-73
2020/12/24 10:25:07;;;;;;;73.75;33.05;;;12.60;99.90;;;;;;5035540;28;20049;-73
2020/12/24 10:27:32;;;;;;;73.90;32.08;;;12.70;99.90;;;;;;5033935;28;20108;-73
2020/12/24 10:29:59;;;;;;;60.58;29.15;;;12.70;99.90;;;;;;5034392;28;20051;-74
2020/12/24 10:32:24;;;;;;;61.90;30.10;;;12.70;99.90;;;;;;5036004;28;20359;-74
2020/12/24 10:34:50;;;;;;;57.78;26.08;;;12.80;99.90;;;;;;5047222;28;20044;-74
2020/12/24 10:37:16;;;;;;;63.70;26.83;;;12.80;99.90;;;;;;5041482;28;20104;-74
2020/12/24 10:39:42;;;;;;;45.47;21.35;;;12.90;99.90;;;;;;5034100;28;20466;-73
2020/12/24 10:42:07;;;;;;;38.97;15.50;;;12.90;99.90;;;;;;5045997;28;20040;-74
2020/12/24 10:44:33;;;;;;;36.45;14.85;;;13.00;99.90;;;;;;5035438;28;20072;-74
2020/12/24 10:46:59;;;;;;;35.58;11.75;;;13.10;99.90;;;;;;5035996;28;20496;-73
2020/12/24 10:49:26;;;;;;;24.90;10.35;;;13.20;99.90;;;;;;5035417;28;20029;-74
2020/12/24 10:51:52;;;;;;;28.95;8.77;;;13.20;99.90;;;;;;5035432;28;20021;-74
2020/12/24 10:54:18;;;;;;;19.00;6.88;;;13.30;99.90;;;;;;5040277;28;20036;-74
2020/12/24 10:56:48;;;;;;;22.30;6.50;;;13.40;99.90;;;;;;5039932;28;20025;-74
2020/12/24 10:59:14;;;;;;;15.35;6.50;;;13.50;99.90;;;;;;5036707;28;20048;-74
2020/12/24 11:01:50;;;;;;;18.15;6.50;;;13.50;99.90;;;;;;5035496;28;20029;-74
2020/12/24 11:04:17;;;;;;;20.90;6.18;;;13.60;99.90;;;;;;5036294;28;20045;-74
2020/12/24 11:06:43;;;;;;;13.57;5.40;;;13.60;99.90;;;;;;5047460;28;20029;-74
2020/12/24 11:09:10;;;;;;;14.80;4.85;;;13.60;99.90;;;;;;5050100;28;20037;-75
2020/12/24 11:11:36;;;;;;;12.77;5.38;;;13.70;99.90;;;;;;5050649;28;20032;-73
2020/12/24 11:14:03;;;;;;;16.48;5.10;;;13.70;99.90;;;;;;5058781;28;20495;-73
2020/12/24 11:16:29;;;;;;;17.20;5.07;;;13.70;99.90;;;;;;5051100;28;20028;-74
2020/12/24 11:18:54;;;;;;;16.30;4.50;;;13.80;99.90;;;;;;5050514;28;20021;-73
2020/12/24 11:21:20;;;;;;;18.50;5.18;;;13.80;99.90;;;;;;5036767;28;20020;-74
2020/12/24 11:23:47;;;;;;;19.00;5.40;;;13.80;99.90;;;;;;5043107;28;20387;-73
2020/12/24 11:26:25;;;;;;;23.23;5.75;;;13.80;99.90;;;;;;5053293;28;20488;-73
2020/12/24 11:28:51;;;;;;;9.75;4.63;;;13.80;99.90;;;;;;5043297;28;20556;-73
2020/12/24 11:31:28;;;;;;;11.25;4.28;;;13.80;99.90;;;;;;5031785;28;20022;-74
2020/12/24 11:33:54;;;;;;;16.15;5.13;;;13.80;99.90;;;;;;5032425;28;20048;-74
2020/12/24 11:36:20;;;;;;;15.52;4.75;;;13.80;99.90;;;;;;5045390;28;20029;-73
2020/12/24 11:38:47;;;;;;;13.88;3.80;;;13.80;99.90;;;;;;5031594;28;20048;-74
2020/12/24 11:41:15;;;;;;;11.60;3.95;;;13.80;99.90;;;;;;5025961;28;20034;-74
2020/12/24 11:43:42;;;;;;;13.20;3.72;;;13.80;99.90;;;;;;5022772;28;20033;-74
2020/12/24 11:46:12;;;;;;;10.88;3.90;;;13.90;99.90;;;;;;5015512;28;20021;-73
2020/12/24 11:48:38;;;;;;;15.55;4.57;;;13.90;99.90;;;;;;5017638;28;20038;-74
2020/12/24 11:51:11;;;;;;;13.63;4.75;;;13.90;99.90;;;;;;5026518;28;20099;-72
2020/12/24 11:53:38;;;;;;;13.63;4.25;;;13.90;99.90;;;;;;5014854;28;20037;-74
2020/12/24 11:56:05;;;;;;;21.52;5.35;;;13.80;99.90;;;;;;5026701;28;20066;-74
2020/12/24 11:58:31;;;;;;;10.52;4.22;;;13.90;99.90;;;;;;5025641;28;20414;-75
2020/12/24 12:00:57;;;;;;;13.13;3.92;;;13.80;99.90;;;;;;5029287;28;20060;-74
2020/12/24 12:03:22;;;;;;;22.85;5.43;;;13.90;99.90;;;;;;5022074;28;20429;-74
2020/12/24 12:05:48;;;;;;;10.65;4.43;;;13.90;99.90;;;;;;5017467;28;20030;-73
2020/12/24 12:08:15;;;;;;;19.35;5.45;;;13.90;99.90;;;;;;5017354;28;20041;-73
2020/12/24 12:10:40;;;;;;;20.52;4.55;;;13.80;99.90;;;;;;5019369;28;20029;-74
2020/12/24 12:13:06;;;;;;;13.60;4.63;;;13.80;99.90;;;;;;5026474;28;20026;-72
2020/12/24 12:15:31;;;;;;;17.00;4.93;;;13.80;99.90;;;;;;4997344;28;20022;-75
2020/12/24 12:17:57;;;;;;;15.35;4.85;;;13.80;99.90;;;;;;5013928;28;20018;-73
2020/12/24 12:20:23;;;;;;;13.13;5.20;;;13.80;99.90;;;;;;5013328;28;20022;-74
2020/12/24 12:22:49;;;;;;;14.07;4.70;;;13.80;99.90;;;;;;5017621;28;20102;-73
2020/12/24 12:25:15;;;;;;;12.23;5.03;;;13.80;99.90;;;;;;5022992;28;20113;-75